Clearfield, Pennsylvania
Current Conditions -  °F | °C
As of 7:54 AM on Wednesday 26 Nov 2014 (Local Time) from KFIG Reporting Station
Overcast Overcast  
Wind Chill: 31°   Ceiling: 9000
Heat Index: 31°   Visibility: 10mi
Dew Point: 24°   Wind: 3mph
Humidity: 76%   Direction: NA
Pressure: 30.1"   Gusts: NA
Location:  41.02°N, 78.44°W
Report Text: KFIG 261254Z AUTO VRB03KT 10SM OVC090 M01/M04 A3010 RMK AO2 PRESRR SLP208 T10061044
Loading
Personal Weather Stations






























Interactive Weather Map New forecast layout! Learn more

10-Day Weather Forecast

Advertisements
Track Severe Weather on mobile